Nearby METAR Reports

 

KBML - Berlin, NH
Updated: Thu, 22-Feb-2018 10:52pm EST
Clear
Clear
 Wind from calm
Wind: Calm
Temperature: 18°F , -8°C
Dew Point: 12°F , -11°C
Humidity: 79%
Barometer: 30.65 inHg , 1037.9 hPa
Clouds: Clear
Visibility: 10 miles , 16 km
2018/02/23 03:52 KBML 230352Z AUTO 00000KT 10SM CLR M08/M11 A3065 RMK AO2 SLP400 T10781106
KCON - Concord, NH
Updated: Thu, 22-Feb-2018 10:51pm EST
Overcast
Overcast
 Wind from calm
Wind: Calm
Temperature: 25°F , -4°C
Dew Point: 21°F , -6°C
Humidity: 86%
Barometer: 30.68 inHg , 1038.9 hPa
Clouds: Overcast
Visibility: 10 miles , 16 km
Cloud details: Overcast 6500 ft
2018/02/23 03:51 KCON 230351Z AUTO 00000KT 10SM OVC065 M04/M06 A3068 RMK AO2 SLP396 T10391056
KAFN - Lebanon, NH
Updated: Thu, 22-Feb-2018 10:52pm EST
Clear
Clear
 Wind from calm
Wind: Calm
Temperature: 21°F , -6°C
Dew Point: 21°F , -6°C
Humidity: 100%
Barometer: 30.64 inHg , 1037.6 hPa
Clouds: Clear
Visibility: 9 miles , 14 km
2018/02/23 03:52 KAFN 230352Z AUTO 00000KT 9SM CLR M06/M06 A3064 RMK AO2 SLP396 I1000 T10561056
 
KMHT - Manchester, NH
Updated: Thu, 22-Feb-2018 10:53pm EST
Patches of fog, Few clouds
Patches of fog, Few clouds
 Wind from calm
Wind: Calm
Temperature: 25°F , -4°C
Dew Point: 25°F , -4°C
Humidity: 100%
Barometer: 30.67 inHg , 1038.6 hPa
Summary: Patches of Fog
Clouds: Few Clouds
Visibility: 7 miles , 11 km
Cloud details: Few Clouds 100 ft
2018/02/23 03:53 KMHT 230353Z 00000KT 7SM BCFG FEW001 M04/M04 A3067 RMK AO2 SLP405 I1000 T10391039
KMWN - Mount Washington
Updated: Thu, 22-Feb-2018 10:56pm EST
Partly cloudy
Partly cloudy
 Wind from NW
Wind: NW 29 mph , 46 km/h
Temperature: 19°F , -7°C
Wind Chill: 0°F , -18°C
Dew Point: -17°F , -27°C
Humidity: 19%
Clouds: Partly cloudy
Visibility: 100 miles , 160 km
Cloud details: Few Clouds 2000 ft
Partly cloudy 7000 ft
Partly cloudy 15000 ft
2018/02/23 03:56 KMWN 230356Z 31025KT 100SM FEW020 SCT070 SCT150 M07/M27 RMK
K25B - Portsmouth Harbor
Updated: Wed, 31-Dec-1969 7:00pm EST
NOT Current
unable to load K25B data RC=404 Not Found
unable to load K25B data RC=404 Not Found
 
 
KDDH - Bennington, VT
Updated: Thu, 22-Feb-2018 11:09pm EST
Partly cloudy
Partly cloudy
 Wind from calm
Wind: Calm
Temperature: 27°F , -3°C
Dew Point: 23°F , -5°C
Humidity: 86%
Barometer: 30.66 inHg , 1038.3 hPa
Clouds: Partly cloudy
Visibility: 10 miles , 16 km
Cloud details: Partly cloudy 900 ft
2018/02/23 04:09 KDDH 230409Z AUTO 00000KT 10SM SCT009 M03/M05 A3066 RMK AO2 T10281050
K9B2 - Newport, VT
Updated: Wed, 31-Dec-1969 7:00pm EST
NOT Current
unable to load K9B2 data RC=404 Not Found
unable to load K9B2 data RC=404 Not Found
 
K1V4 - St Johnsbury, VT
Updated: Thu, 22-Feb-2018 2:54am EST
NOT Current

 
Temperature: 30°F , -1°C
Dew Point: 19°F , -7°C
Humidity: 64%
Barometer: 30.57 inHg , 1035.2 hPa
2018/02/22 07:54 K1V4 220754Z AUTO M01/M07 A3057 RMK AO1 SLP356 T10111072
 
KBGR - Bangor, ME
Updated: Thu, 22-Feb-2018 10:53pm EST
Clear
Clear
 Wind from NNW
Wind: NNW 6 mph , 9 km/h
Temperature: 25°F , -4°C
Wind Chill: 18°F , -8°C
Dew Point: 12°F , -11°C
Humidity: 59%
Barometer: 30.70 inHg , 1039.6 hPa
Clouds: Clear
Visibility: 10 miles , 16 km
2018/02/23 03:53 KBGR 230353Z 33005KT 10SM CLR M04/M11 A3070 RMK AO2 SLP398 T10441106 $
KBHB - Bar Harbor, ME
Updated: Thu, 22-Feb-2018 10:56pm EST
Clear
Clear
 Wind from N
Wind: N 5 mph , 7 km/h
Temperature: 27°F , -3°C
Wind Chill: 21°F , -6°C
Dew Point: 12°F , -11°C
Humidity: 54%
Barometer: 30.69 inHg , 1039.3 hPa
Clouds: Clear
Visibility: 10 miles , 16 km
2018/02/23 03:56 KBHB 230356Z AUTO 35004KT 10SM CLR M03/M11 A3069 RMK AO2 SLP398 T10281111 FZRANO PNO $
74389 - Gray, ME
Updated: Wed, 31-Dec-1969 7:00pm EST
NOT Current
74389 not loaded
74389 not loaded
 
 
KGNR - Greenville,ME
Updated: Thu, 22-Feb-2018 10:56pm EST

 Wind from N
Wind: N 5 mph , 7 km/h
Temperature: 18°F , -8°C
Wind Chill: 11°F , -12°C
Dew Point: 7°F , -14°C
Humidity: 62%
Barometer: 30.60 inHg , 1036.2 hPa
2018/02/23 03:56 KGNR 230356Z AUTO 01004KT M08/M14 A3060 RMK AO1 SLP390 T10831144
KOLD - Old Town, ME
Updated: Wed, 31-Dec-1969 7:00pm EST
NOT Current
unable to load KOLD data RC=404 Not Found
unable to load KOLD data RC=404 Not Found
 
KRUM - Rumford, ME
Updated: Wed, 31-Dec-1969 7:00pm EST
NOT Current
unable to load KRUM data RC=404 Not Found
unable to load KRUM data RC=404 Not Found
 





4073194


Contact Us

© 2018, johnsnhweather | Weather-Display (10.37S-(b66)) | Valid XHTML 1.0 | Valid CSS

This website is neither affiliated with nor endorsed by the National Weather Service, the town of Pittsburg or any other government agency.
The weather data contained herein is offered without any warranties expressed or implied, and is meant to supplement NOAA weather forecasts and information. Never base important decisions that could result in harm to people or property on this weather information.